createdAt,value
2022-11-13T00:01:54.811Z,50.37
2022-11-13T00:04:42.682Z,54.40
2022-11-13T00:07:29.568Z,30.57
2022-11-13T00:10:17.020Z,19.90
2022-11-13T00:13:03.302Z,39.50
2022-11-13T00:15:57.933Z,38.27
2022-11-13T00:18:44.727Z,27.63
2022-11-13T00:21:33.179Z,31.93
2022-11-13T00:24:19.670Z,31.20
2022-11-13T00:27:06.058Z,207.93
2022-11-13T00:29:52.595Z,75.40
2022-11-13T00:32:40.161Z,26.60
2022-11-13T00:35:26.465Z,194.77
2022-11-13T00:38:14.336Z,92.73
2022-11-13T00:41:01.481Z,62.43
2022-11-13T00:43:48.197Z,44.27
2022-11-13T00:46:34.810Z,36.13
2022-11-13T00:49:21.075Z,46.53
2022-11-13T00:52:07.637Z,59.47
2022-11-13T00:54:55.648Z,50.37
2022-11-13T00:57:42.072Z,44.33
2022-11-13T01:00:28.505Z,97.27
2022-11-13T01:03:16.382Z,71.87
2022-11-13T01:06:09.950Z,45.23
2022-11-13T01:08:57.072Z,64.40
2022-11-13T01:11:44.935Z,86.07
2022-11-13T01:14:31.173Z,21.00
2022-11-13T01:17:17.748Z,36.93
2022-11-13T01:20:05.372Z,48.23
2022-11-13T01:22:52.175Z,222.60
2022-11-13T01:25:38.761Z,33.60
2022-11-13T01:28:26.664Z,69.47
2022-11-13T01:31:16.718Z,21.17
2022-11-13T01:34:02.962Z,58.33
2022-11-13T01:36:49.715Z,51.87
2022-11-13T01:39:36.177Z,64.87
2022-11-13T01:42:22.416Z,35.53
2022-11-13T01:45:42.415Z,24.53
2022-11-13T01:48:35.654Z,13.37
2022-11-13T01:51:27.242Z,21.17
2022-11-13T01:54:17.859Z,13.23
2022-11-13T01:57:05.573Z,18.57
2022-11-13T01:59:56.564Z,13.67
2022-11-13T02:02:42.904Z,12.53
2022-11-13T02:05:31.153Z,33.87
2022-11-13T02:08:17.712Z,12.07
2022-11-13T02:11:04.602Z,10.90
2022-11-13T02:13:51.280Z,25.53
2022-11-13T02:16:38.957Z,20.97
2022-11-13T02:19:29.145Z,12.93
2022-11-13T02:22:27.063Z,13.43
2022-11-13T02:25:15.737Z,14.33
2022-11-13T02:28:02.740Z,12.80
2022-11-13T02:30:49.406Z,18.00
2022-11-13T02:33:36.429Z,21.23
2022-11-13T02:36:26.447Z,19.93
2022-11-13T02:39:14.794Z,16.47
2022-11-13T02:42:02.568Z,78.73
2022-11-13T02:44:48.729Z,11.47
2022-11-13T02:47:35.825Z,43.20
2022-11-13T02:50:22.499Z,16.50
2022-11-13T02:53:08.897Z,14.87
2022-11-13T02:55:55.419Z,13.93
2022-11-13T02:58:43.591Z,10.23
2022-11-13T03:01:30.356Z,11.23
2022-11-13T03:04:17.158Z,11.53
2022-11-13T03:07:04.096Z,59.00
2022-11-13T03:09:50.916Z,9.17
2022-11-13T03:12:37.712Z,6.60
2022-11-13T03:15:25.753Z,17.83
2022-11-13T03:18:15.049Z,8.13
2022-11-13T03:21:08.222Z,34.73
2022-11-13T03:23:55.498Z,8.10
2022-11-13T03:26:42.041Z,10.93
2022-11-13T03:29:28.263Z,8.83
2022-11-13T03:32:16.430Z,11.10
2022-11-13T03:35:02.816Z,7.40
2022-11-13T03:37:49.439Z,10.80
2022-11-13T03:40:35.847Z,43.50
2022-11-13T03:43:22.235Z,13.07
2022-11-13T03:46:08.860Z,7.80
2022-11-13T03:48:56.932Z,18.13
2022-11-13T03:51:43.315Z,34.17
2022-11-13T03:54:29.636Z,36.33
2022-11-13T03:57:16.533Z,44.17
2022-11-13T04:00:05.669Z,12.57
2022-11-13T04:02:52.122Z,25.07
2022-11-13T04:05:40.703Z,20.10
2022-11-13T04:08:27.381Z,24.23
2022-11-13T04:11:14.651Z,11.27
2022-11-13T04:14:01.237Z,12.47
2022-11-13T04:16:47.694Z,8.97
2022-11-13T04:19:34.420Z,12.20
2022-11-13T04:22:22.229Z,15.73
2022-11-13T04:25:09.823Z,20.90
2022-11-13T04:27:56.766Z,12.87
2022-11-13T04:30:43.380Z,29.23
2022-11-13T04:33:29.948Z,15.20
2022-11-13T04:36:16.248Z,8.67
2022-11-13T04:39:04.715Z,8.87
2022-11-13T04:42:08.958Z,25.63
2022-11-13T04:44:55.455Z,9.23
2022-11-13T04:47:42.156Z,20.77
2022-11-13T04:50:28.744Z,11.70
2022-11-13T04:53:15.180Z,11.60
2022-11-13T04:56:03.023Z,7.97
2022-11-13T04:58:49.577Z,42.17
2022-11-13T05:01:37.084Z,9.60
2022-11-13T05:04:23.595Z,13.73
2022-11-13T05:07:09.730Z,76.70
2022-11-13T05:09:56.095Z,28.17
2022-11-13T05:12:44.117Z,23.03
2022-11-13T05:15:30.509Z,26.13
2022-11-13T05:18:17.085Z,22.03
2022-11-13T05:21:03.840Z,18.50
2022-11-13T05:23:50.212Z,13.07
2022-11-13T05:26:38.555Z,51.80
2022-11-13T05:29:26.475Z,6.90
2022-11-13T05:32:13.251Z,63.30
2022-11-13T05:34:59.384Z,31.63
2022-11-13T05:37:45.919Z,7.60
2022-11-13T05:40:32.500Z,16.97
2022-11-13T05:43:18.756Z,13.73
2022-11-13T05:46:08.543Z,6.17
2022-11-13T05:48:59.603Z,22.43
2022-11-13T05:51:45.955Z,19.53
2022-11-13T05:54:32.353Z,22.47
2022-11-13T05:57:20.136Z,21.53
2022-11-13T06:00:08.306Z,8.33
2022-11-13T06:02:56.256Z,5.60
2022-11-13T06:05:42.573Z,11.43
2022-11-13T06:08:29.281Z,8.20
2022-11-13T06:11:17.075Z,28.23
2022-11-13T06:14:03.447Z,14.90
2022-11-13T06:16:50.176Z,21.60
2022-11-13T06:19:37.804Z,8.30
2022-11-13T06:22:24.076Z,10.53
2022-11-13T06:25:10.855Z,5.47
2022-11-13T06:27:57.253Z,9.03
2022-11-13T06:30:43.744Z,5.33
2022-11-13T06:33:30.051Z,20.43
2022-11-13T06:36:21.554Z,5.70
2022-11-13T06:39:09.457Z,7.47
2022-11-13T06:41:56.237Z,10.33
2022-11-13T06:44:42.723Z,5.87
2022-11-13T06:47:29.751Z,7.13
2022-11-13T06:50:16.077Z,6.20
2022-11-13T06:53:03.971Z,5.83
2022-11-13T06:55:51.799Z,6.50
2022-11-13T06:58:38.789Z,6.30
2022-11-13T07:01:26.904Z,10.80
2022-11-13T07:04:13.839Z,14.17
2022-11-13T07:07:03.115Z,6.03
2022-11-13T07:09:50.887Z,6.60
2022-11-13T07:12:37.763Z,5.90
2022-11-13T07:15:23.948Z,7.10
2022-11-13T07:18:10.493Z,8.43
2022-11-13T07:20:57.285Z,7.00
2022-11-13T07:23:44.507Z,7.27
2022-11-13T07:26:32.527Z,16.93
2022-11-13T07:29:18.765Z,29.00
2022-11-13T07:32:05.965Z,6.10
2022-11-13T07:34:52.554Z,18.63
2022-11-13T07:37:39.089Z,6.20
2022-11-13T07:40:25.760Z,7.10
2022-11-13T07:43:13.757Z,6.67
2022-11-13T07:46:00.234Z,6.20
2022-11-13T07:48:46.884Z,6.70
2022-11-13T07:51:33.385Z,6.50
2022-11-13T07:54:19.656Z,5.90
2022-11-13T07:57:06.177Z,7.17
2022-11-13T07:59:56.190Z,6.07
2022-11-13T08:02:44.957Z,6.10
2022-11-13T08:05:31.820Z,5.90
2022-11-13T08:08:18.234Z,6.30
2022-11-13T08:11:06.871Z,6.10
2022-11-13T08:13:53.287Z,6.80
2022-11-13T08:16:40.959Z,6.60
2022-11-13T08:19:27.187Z,6.13
2022-11-13T08:22:13.844Z,6.63
2022-11-13T08:25:00.519Z,8.90
2022-11-13T08:27:47.247Z,6.10
2022-11-13T08:30:33.798Z,5.73
2022-11-13T08:33:21.784Z,6.43
2022-11-13T08:36:09.811Z,6.80
2022-11-13T08:38:56.251Z,6.30
2022-11-13T08:41:42.682Z,5.43
2022-11-13T08:44:29.184Z,6.33
2022-11-13T08:47:16.119Z,5.70
2022-11-13T08:50:04.060Z,6.80
2022-11-13T08:52:55.242Z,6.17
2022-11-13T08:55:41.946Z,6.17
2022-11-13T08:58:28.890Z,6.33
2022-11-13T09:01:16.836Z,6.73
2022-11-13T09:04:03.677Z,6.07
2022-11-13T09:06:51.230Z,6.33
2022-11-13T09:09:37.801Z,6.13
2022-11-13T09:12:24.131Z,6.90
2022-11-13T09:15:12.339Z,6.83
2022-11-13T09:18:07.376Z,6.70
2022-11-13T09:20:53.892Z,6.67
2022-11-13T09:23:41.891Z,5.93
2022-11-13T09:26:28.228Z,6.83
2022-11-13T09:29:14.870Z,6.70
2022-11-13T09:32:01.528Z,6.70
2022-11-13T09:34:48.232Z,6.10
2022-11-13T09:37:35.243Z,6.03
2022-11-13T09:40:30.432Z,5.73
2022-11-13T09:43:29.809Z,6.03
2022-11-13T09:46:22.869Z,6.60
2022-11-13T09:49:16.520Z,7.47
2022-11-13T09:52:11.487Z,6.70
2022-11-13T09:54:57.990Z,6.17
2022-11-13T09:57:52.629Z,6.33
2022-11-13T10:00:39.453Z,5.83
2022-11-13T10:07:05.228Z,7.23
2022-11-13T10:10:06.668Z,7.10
2022-11-13T10:12:57.360Z,7.07
2022-11-13T10:15:47.357Z,6.63
2022-11-13T10:18:38.869Z,7.17
2022-11-13T10:21:33.543Z,6.83
2022-11-13T10:24:25.795Z,6.77
2022-11-13T10:27:14.339Z,7.00
2022-11-13T10:30:03.028Z,7.07
2022-11-13T10:32:50.027Z,6.07
2022-11-13T10:35:57.405Z,6.43
2022-11-13T10:38:46.253Z,6.33
2022-11-13T10:41:33.406Z,6.00
2022-11-13T10:44:22.982Z,6.43
2022-11-13T10:47:26.480Z,6.30
2022-11-13T10:50:22.653Z,6.40
2022-11-13T10:53:17.306Z,7.17
2022-11-13T10:56:15.591Z,6.37
2022-11-13T10:59:04.751Z,6.90
2022-11-13T11:01:51.744Z,6.60
2022-11-13T11:04:43.113Z,8.03
2022-11-13T11:07:30.199Z,7.23
2022-11-13T11:10:28.494Z,7.27
2022-11-13T11:13:23.891Z,7.07
2022-11-13T11:16:15.272Z,7.60
2022-11-13T11:19:05.582Z,6.87
2022-11-13T11:22:10.754Z,7.07
2022-11-13T11:25:02.771Z,7.63
2022-11-13T11:27:57.441Z,7.60
2022-11-13T11:30:50.932Z,8.87
2022-11-13T11:33:44.304Z,7.77
2022-11-13T11:36:36.104Z,8.13
2022-11-13T11:39:32.036Z,9.43
2022-11-13T11:42:26.763Z,7.63
2022-11-13T11:45:17.434Z,7.93
2022-11-13T11:48:07.221Z,8.27
2022-11-13T11:51:02.437Z,8.00
2022-11-13T11:53:59.437Z,8.23
2022-11-13T11:56:52.299Z,8.27
2022-11-13T12:03:34.569Z,9.00
2022-11-13T12:06:31.295Z,7.97
2022-11-13T12:09:27.967Z,7.40
2022-11-13T12:12:26.045Z,7.53
2022-11-13T12:15:21.551Z,8.73
2022-11-13T12:18:15.666Z,10.87
2022-11-13T12:21:12.608Z,8.70
2022-11-13T12:24:18.958Z,8.07
2022-11-13T12:27:18.940Z,8.17
2022-11-13T12:30:15.173Z,7.60
2022-11-13T12:33:17.484Z,7.17
2022-11-13T12:36:05.130Z,8.43
2022-11-13T12:39:01.143Z,8.40
2022-11-13T12:41:54.749Z,9.17
2022-11-13T12:44:50.676Z,8.80
2022-11-13T12:47:39.110Z,8.97
2022-11-13T12:50:32.063Z,8.73
2022-11-13T12:53:27.327Z,8.20
2022-11-13T12:56:19.512Z,8.93
2022-11-13T12:59:30.487Z,8.97
2022-11-13T13:02:49.268Z,8.53
2022-11-13T13:05:58.463Z,8.47
2022-11-13T13:09:01.931Z,7.67
2022-11-13T13:11:59.528Z,7.83
2022-11-13T13:15:08.593Z,7.77
2022-11-13T13:18:06.186Z,7.53
2022-11-13T13:21:03.050Z,7.50
2022-11-13T13:23:51.407Z,7.37
2022-11-13T13:26:46.301Z,6.30
2022-11-13T13:29:34.991Z,6.80
2022-11-13T13:32:27.477Z,6.57
2022-11-13T13:35:19.163Z,6.87
2022-11-13T13:38:16.353Z,6.53
2022-11-13T13:41:18.113Z,6.37
2022-11-13T13:44:20.883Z,6.67
2022-11-13T13:47:16.017Z,6.80
2022-11-13T13:50:05.604Z,6.37
2022-11-13T13:52:55.996Z,6.90
2022-11-13T13:55:49.268Z,6.73
2022-11-13T13:58:38.013Z,6.27
2022-11-13T14:01:29.227Z,6.40
2022-11-13T14:04:19.704Z,6.53
2022-11-13T14:07:20.786Z,6.57
2022-11-13T14:10:15.831Z,6.40
2022-11-13T14:13:02.996Z,6.40
2022-11-13T14:15:49.499Z,7.27
2022-11-13T14:18:36.751Z,6.93
2022-11-13T14:21:25.000Z,7.20
2022-11-13T14:24:17.507Z,6.37
2022-11-13T14:27:09.514Z,7.17
2022-11-13T14:29:59.664Z,6.57
2022-11-13T14:32:47.398Z,7.33
2022-11-13T14:35:33.985Z,7.03
2022-11-13T14:38:23.333Z,7.73
2022-11-13T14:41:21.508Z,7.07
2022-11-13T14:44:11.745Z,7.77
2022-11-13T14:47:02.684Z,6.77
2022-11-13T14:49:49.219Z,7.13
2022-11-13T14:52:35.738Z,7.23
2022-11-13T14:55:23.794Z,7.73
2022-11-13T14:58:14.566Z,8.23
2022-11-13T15:01:15.685Z,7.67
2022-11-13T15:04:02.503Z,8.40
2022-11-13T15:06:50.848Z,8.37
2022-11-13T15:09:37.108Z,7.73
2022-11-13T15:12:23.547Z,7.03
2022-11-13T15:15:15.191Z,6.80
2022-11-13T15:18:03.575Z,8.33
2022-11-13T15:20:50.118Z,7.37
2022-11-13T15:23:36.889Z,8.33
2022-11-13T15:26:24.118Z,8.33
2022-11-13T15:29:11.007Z,7.67
2022-11-13T15:31:58.558Z,8.40
2022-11-13T15:34:46.632Z,8.23
2022-11-13T15:37:33.504Z,7.73
2022-11-13T15:40:20.105Z,7.50
2022-11-13T15:43:07.198Z,8.80
2022-11-13T15:45:53.425Z,8.13
2022-11-13T15:48:40.103Z,8.13
2022-11-13T15:51:33.188Z,8.30
2022-11-13T15:54:26.263Z,8.60
2022-11-13T15:57:19.174Z,8.43
2022-11-13T16:00:13.627Z,9.03
2022-11-13T16:03:00.052Z,9.00
2022-11-13T16:05:46.714Z,8.27
2022-11-13T16:08:34.645Z,7.87
2022-11-13T16:11:21.964Z,9.87
2022-11-13T16:14:08.976Z,10.57
2022-11-13T16:16:55.781Z,16.90
2022-11-13T16:19:43.411Z,11.60
2022-11-13T16:22:30.231Z,11.13
2022-11-13T16:25:21.162Z,10.00
2022-11-13T16:28:16.385Z,9.83
2022-11-13T16:31:03.647Z,19.03
2022-11-13T16:33:51.112Z,9.93
2022-11-13T16:36:37.736Z,10.40
2022-11-13T16:39:24.512Z,9.67
2022-11-13T16:42:12.873Z,9.20
2022-11-13T16:44:59.241Z,9.47
2022-11-13T16:47:46.545Z,8.17
2022-11-13T16:50:36.913Z,9.33
2022-11-13T16:53:23.357Z,13.77
2022-11-13T16:56:14.834Z,11.63
2022-11-13T16:59:02.626Z,9.80
2022-11-13T17:01:49.090Z,9.83
2022-11-13T17:04:35.583Z,9.57
2022-11-13T17:07:22.866Z,9.20
2022-11-13T17:13:19.275Z,10.53
2022-11-13T17:16:07.478Z,10.30
2022-11-13T17:18:54.793Z,13.23
2022-11-13T17:21:44.237Z,10.23
2022-11-13T17:24:31.121Z,11.93
2022-11-13T17:27:18.501Z,12.00
2022-11-13T17:30:05.615Z,11.83
2022-11-13T17:32:58.862Z,10.83
2022-11-13T17:35:46.440Z,12.20
2022-11-13T17:38:33.524Z,12.23
2022-11-13T17:41:19.708Z,10.33
2022-11-13T17:44:06.327Z,9.50
2022-11-13T17:46:53.838Z,11.93
2022-11-13T17:49:41.561Z,11.40
2022-11-13T17:52:28.683Z,10.87
2022-11-13T17:55:15.407Z,11.20
2022-11-13T17:58:02.849Z,10.70
2022-11-13T18:00:49.631Z,12.13
2022-11-13T18:03:36.427Z,11.43
2022-11-13T18:06:25.399Z,13.53
2022-11-13T18:09:12.458Z,14.13
2022-11-13T18:11:58.820Z,12.57
2022-11-13T18:14:52.258Z,11.63
2022-11-13T18:17:39.040Z,11.70
2022-11-13T18:20:25.751Z,12.83
2022-11-13T18:23:13.591Z,12.37
2022-11-13T18:26:07.691Z,11.33
2022-11-13T18:28:53.929Z,11.23
2022-11-13T18:31:40.627Z,13.10
2022-11-13T18:34:28.484Z,14.67
2022-11-13T18:37:15.005Z,14.13
2022-11-13T18:40:03.226Z,12.97
2022-11-13T18:42:50.992Z,31.57
2022-11-13T18:45:37.444Z,22.73
2022-11-13T18:48:23.759Z,24.53
2022-11-13T18:51:13.373Z,15.80
2022-11-13T18:53:59.884Z,52.70
2022-11-13T18:56:47.699Z,60.00
2022-11-13T18:59:34.441Z,25.77
2022-11-13T19:02:21.252Z,57.83
2022-11-13T19:05:07.826Z,79.80
2022-11-13T19:07:54.061Z,29.23
2022-11-13T19:10:42.031Z,49.23
2022-11-13T19:13:29.789Z,47.30
2022-11-13T19:16:18.958Z,40.60
2022-11-13T19:19:07.962Z,64.93
2022-11-13T19:21:54.341Z,49.27
2022-11-13T19:24:40.742Z,103.57
2022-11-13T19:27:27.072Z,121.57
2022-11-13T19:30:15.317Z,121.43
2022-11-13T19:33:01.938Z,51.07
2022-11-13T19:35:48.287Z,31.30
2022-11-13T19:38:34.786Z,55.23
2022-11-13T19:41:21.768Z,115.67
2022-11-13T19:44:10.352Z,123.77
2022-11-13T19:46:58.205Z,54.63
2022-11-13T19:49:44.900Z,71.23
2022-11-13T19:52:31.388Z,71.60
2022-11-13T19:55:17.882Z,86.67
2022-11-13T19:58:04.317Z,160.93
2022-11-13T20:00:51.097Z,42.77
2022-11-13T20:03:39.057Z,52.27
2022-11-13T20:06:26.967Z,95.17
2022-11-13T20:09:13.265Z,71.33
2022-11-13T20:12:00.073Z,122.53
2022-11-13T20:14:46.708Z,117.33
2022-11-13T20:17:33.182Z,83.40
2022-11-13T20:20:20.883Z,136.90
2022-11-13T20:23:07.310Z,70.03
2022-11-13T20:25:55.115Z,196.43
2022-11-13T20:28:41.500Z,97.60
2022-11-13T20:31:28.567Z,87.10
2022-11-13T20:34:15.648Z,55.30
2022-11-13T20:37:03.664Z,34.63
2022-11-13T20:39:50.039Z,134.63
2022-11-13T20:42:36.772Z,59.97
2022-11-13T20:45:22.904Z,26.17
2022-11-13T20:48:09.592Z,31.10
2022-11-13T20:50:56.223Z,49.63
2022-11-13T20:53:44.433Z,24.53
2022-11-13T20:56:30.975Z,41.90
2022-11-13T20:59:17.493Z,39.80
2022-11-13T21:02:04.171Z,68.50
2022-11-13T21:04:50.621Z,18.70
2022-11-13T21:07:37.319Z,53.53
2022-11-13T21:10:25.194Z,29.27
2022-11-13T21:13:11.304Z,30.17
2022-11-13T21:15:57.793Z,49.73
2022-11-13T21:18:44.378Z,61.87
2022-11-13T21:21:31.743Z,24.70
2022-11-13T21:24:18.507Z,53.23
2022-11-13T21:27:06.473Z,154.67
2022-11-13T21:29:53.830Z,33.80
2022-11-13T21:32:40.916Z,62.30
2022-11-13T21:35:28.021Z,67.90
2022-11-13T21:38:14.482Z,85.90
2022-11-13T21:41:15.532Z,27.70
2022-11-13T21:44:05.636Z,43.57
2022-11-13T21:46:52.191Z,22.20
2022-11-13T21:49:38.698Z,64.73
2022-11-13T21:52:25.098Z,56.13
2022-11-13T21:55:11.382Z,154.47
2022-11-13T21:57:57.920Z,146.73
2022-11-13T22:00:45.925Z,62.90
2022-11-13T22:03:33.040Z,76.47
2022-11-13T22:06:21.989Z,42.80
2022-11-13T22:09:15.169Z,57.30
2022-11-13T22:12:01.775Z,122.83
2022-11-13T22:14:48.092Z,77.53
2022-11-13T22:17:35.889Z,67.63
2022-11-13T22:20:22.473Z,78.93
2022-11-13T22:23:09.321Z,123.90
2022-11-13T22:26:00.608Z,133.50
2022-11-13T22:28:51.548Z,41.43
2022-11-13T22:31:38.256Z,31.50
2022-11-13T22:34:25.883Z,77.60
2022-11-13T22:37:12.447Z,70.37
2022-11-13T22:39:58.900Z,32.23
2022-11-13T22:42:45.257Z,56.83
2022-11-13T22:45:33.944Z,44.13
2022-11-13T22:48:20.268Z,17.63
2022-11-13T22:51:12.569Z,23.13
2022-11-13T22:54:01.105Z,36.67
2022-11-13T22:56:47.789Z,46.73
2022-11-13T22:59:34.516Z,38.27
2022-11-13T23:02:20.762Z,65.00
2022-11-13T23:05:10.087Z,73.43
2022-11-13T23:07:58.331Z,76.17
2022-11-13T23:10:44.651Z,66.40
2022-11-13T23:13:30.855Z,20.73
2022-11-13T23:16:18.283Z,16.67
2022-11-13T23:19:05.475Z,51.10
2022-11-13T23:21:52.049Z,31.87
2022-11-13T23:24:40.110Z,58.87
2022-11-13T23:27:26.716Z,17.27
2022-11-13T23:30:13.535Z,19.23
2022-11-13T23:32:59.867Z,48.10
2022-11-13T23:35:46.670Z,82.10
2022-11-13T23:38:32.928Z,22.07
2022-11-13T23:41:20.823Z,20.60
2022-11-13T23:44:09.099Z,20.23
2022-11-13T23:46:56.541Z,38.20
2022-11-13T23:49:43.172Z,12.73
2022-11-13T23:52:29.430Z,15.13
2022-11-13T23:55:16.994Z,18.50
2022-11-13T23:58:06.271Z,32.87
